Time;durP1;ratioP1;P1;durP2;ratioP2;P2;SDS_P1;SDS_P2;PMS_P1;PMS_P2;Temp;Humidity;BMP_temperature;BMP_pressure;BME280_temperature;BME280_humidity;BME280_pressure;Samples;Min_cycle;Max_cycle;Signal;HPM_P1;HPM_P2
2023/07/08 00:01:15;;;;;;;6.63;4.00;;;20.70;99.90;;;20.27;100.00;100794.03;4170576;28;20535;-75
2023/07/08 00:03:18;;;;;;;4.30;3.75;;;20.70;99.90;;;20.27;100.00;100802.06;4170529;28;20021;-75
2023/07/08 00:05:22;;;;;;;6.05;4.43;;;20.60;99.90;;;20.20;100.00;100795.88;4170129;28;20026;-75
2023/07/08 00:07:23;;;;;;;5.72;4.03;;;20.60;99.90;;;20.19;100.00;100806.84;4203162;28;20280;-75
2023/07/08 00:09:24;;;;;;;6.22;4.05;;;20.60;99.90;;;20.15;100.00;100800.25;4203123;28;20091;-76
2023/07/08 00:11:26;;;;;;;6.93;4.25;;;20.60;99.90;;;20.10;100.00;100794.75;4187929;28;20021;-75
2023/07/08 00:13:27;;;;;;;7.22;4.55;;;20.50;99.90;;;20.04;100.00;100782.22;4170206;28;20033;-75
2023/07/08 00:15:34;;;;;;;8.30;4.88;;;20.50;99.90;;;20.06;100.00;100785.47;4170202;28;20056;-75
2023/07/08 00:17:35;;;;;;;6.03;4.32;;;20.50;99.90;;;20.01;100.00;100777.28;4170562;28;20083;-76
2023/07/08 00:19:36;;;;;;;7.80;4.72;;;20.50;99.90;;;19.99;100.00;100782.03;4187729;28;20021;-76
2023/07/08 00:21:37;;;;;;;6.72;4.57;;;20.40;99.90;;;19.94;100.00;100782.69;4187771;28;20059;-75
2023/07/08 00:23:38;;;;;;;7.25;4.68;;;20.40;99.90;;;19.88;100.00;100784.38;4187244;28;20099;-76
2023/07/08 00:25:39;;;;;;;7.88;4.65;;;20.30;99.90;;;19.87;100.00;100784.56;4170016;28;20079;-75
2023/07/08 00:27:40;;;;;;;7.82;4.72;;;20.30;99.90;;;19.68;100.00;100770.25;4170104;28;20060;-75
2023/07/08 00:29:42;;;;;;;6.30;4.75;;;20.30;99.90;;;19.78;100.00;100794.72;4169805;28;20576;-75
2023/07/08 00:31:42;;;;;;;5.70;4.38;;;20.30;99.90;;;19.80;100.00;100818.59;4169715;28;20022;-75
2023/07/08 00:33:43;;;;;;;5.22;4.43;;;20.30;99.90;;;19.73;100.00;100807.94;4187613;28;20032;-75
2023/07/08 00:35:45;;;;;;;8.80;5.18;;;20.20;99.90;;;19.87;100.00;100828.22;4187378;28;20025;-75
2023/07/08 00:37:46;;;;;;;6.13;4.75;;;20.30;99.90;;;19.93;100.00;100831.06;4169840;28;20049;-75
2023/07/08 00:39:47;;;;;;;7.75;5.05;;;20.30;99.90;;;20.03;100.00;100834.13;4187111;28;20032;-75
2023/07/08 00:41:49;;;;;;;6.53;4.50;;;20.40;99.90;;;20.08;100.00;100843.16;4187498;28;20476;-75
2023/07/08 00:43:55;;;;;;;5.28;4.53;;;20.50;99.90;;;20.11;100.00;100848.06;4169739;28;20100;-76
2023/07/08 00:46:15;;;;;;;6.03;5.03;;;20.50;99.90;;;20.16;100.00;100856.28;4169573;28;20063;-75
2023/07/08 00:48:23;;;;;;;8.02;4.85;;;20.50;99.90;;;20.20;100.00;100852.13;4175883;28;20511;-75
2023/07/08 00:50:24;;;;;;;5.35;4.32;;;20.60;99.90;;;20.06;100.00;100831.84;4187407;28;20036;-75
2023/07/08 00:52:28;;;;;;;7.45;5.13;;;20.60;99.90;;;20.15;100.00;100849.28;4185932;28;20429;-75
2023/07/08 00:54:29;;;;;;;8.88;5.00;;;20.60;99.90;;;20.22;100.00;100859.97;4169128;28;20120;-76
2023/07/08 00:56:48;;;;;;;6.78;5.05;;;20.60;99.90;;;20.24;100.00;100852.53;4169583;28;20420;-75
2023/07/08 00:59:00;;;;;;;7.32;5.45;;;20.60;99.90;;;20.26;100.00;100850.47;4169434;28;20105;-75
2023/07/08 01:01:04;;;;;;;7.57;5.00;;;20.60;99.90;;;20.20;100.00;100837.91;4186809;28;20400;-75
2023/07/08 01:03:05;;;;;;;10.48;5.90;;;20.70;99.90;;;20.19;100.00;100838.97;4176665;28;20028;-76
2023/07/08 01:05:14;;;;;;;8.77;5.53;;;20.70;99.90;;;20.14;100.00;100822.72;4185675;28;20013;-75
2023/07/08 01:07:21;;;;;;;7.82;5.45;;;20.70;99.90;;;20.16;100.00;100824.13;4202252;28;20035;-75
2023/07/08 01:09:24;;;;;;;9.32;6.07;;;20.60;99.90;;;20.16;100.00;100823.34;4186315;28;20025;-75
2023/07/08 01:11:25;;;;;;;6.05;4.90;;;20.60;99.90;;;20.14;100.00;100812.81;4185754;28;20036;-75
2023/07/08 01:13:26;;;;;;;6.68;5.20;;;20.60;99.90;;;20.10;100.00;100802.78;4170366;28;20535;-75
2023/07/08 01:15:34;;;;;;;6.88;5.32;;;20.60;99.90;;;20.06;100.00;100804.22;4169089;28;20025;-75
2023/07/08 01:17:36;;;;;;;7.00;4.55;;;20.50;99.90;;;19.96;100.00;100818.09;4169027;28;20025;-75
2023/07/08 01:19:38;;;;;;;8.35;5.03;;;20.40;99.90;;;19.86;100.00;100821.22;4186691;28;20131;-75
2023/07/08 01:21:53;;;;;;;7.75;4.68;;;20.30;99.90;;;19.78;100.00;100826.84;4186936;28;20021;-75
2023/07/08 01:23:54;;;;;;;6.30;5.18;;;20.30;99.90;;;19.72;100.00;100833.03;4156661;28;20056;-75
2023/07/08 01:25:55;;;;;;;9.27;4.95;;;20.20;99.90;;;19.66;100.00;100846.44;4168869;28;20030;-75
2023/07/08 01:27:57;;;;;;;9.18;5.90;;;20.20;99.90;;;19.61;100.00;100841.75;4169169;28;20033;-75
2023/07/08 01:29:59;;;;;;;6.93;4.88;;;20.10;99.90;;;19.63;100.00;100837.00;4185496;28;20029;-75
2023/07/08 01:32:02;;;;;;;9.77;5.43;;;20.10;99.90;;;19.74;100.00;100844.34;4169072;28;20652;-75
2023/07/08 01:34:04;;;;;;;5.85;4.88;;;20.20;99.90;;;19.72;100.00;100841.06;4168790;28;20029;-76
2023/07/08 01:36:05;;;;;;;7.28;5.75;;;20.20;99.90;;;19.67;100.00;100835.53;4168854;28;20026;-76
2023/07/08 01:38:11;;;;;;;7.25;4.85;;;20.10;99.90;;;19.60;100.00;100829.38;4168810;28;20060;-76
2023/07/08 01:40:31;;;;;;;6.90;5.28;;;20.00;99.90;;;19.46;100.00;100817.13;4168922;28;20021;-75
2023/07/08 01:42:32;;;;;;;7.88;5.25;;;19.90;99.90;;;19.37;100.00;100809.50;4152542;28;20088;-75
2023/07/08 01:44:36;;;;;;;7.97;5.38;;;19.90;99.90;;;19.32;100.00;100821.63;4152451;28;20543;-76
2023/07/08 01:46:37;;;;;;;7.65;5.30;;;19.80;99.90;;;19.30;100.00;100823.72;4168478;28;20025;-75
2023/07/08 01:48:44;;;;;;;7.50;4.97;;;19.70;99.90;;;19.25;100.00;100836.09;4186400;28;20031;-75
2023/07/08 01:51:05;;;;;;;7.15;5.72;;;19.70;99.90;;;19.21;100.00;100834.84;4169097;28;20033;-75
2023/07/08 01:53:35;;;;;;;8.43;5.07;;;19.60;99.90;;;19.10;100.00;100830.97;4168727;28;20029;-75
2023/07/08 01:55:35;;;;;;;6.80;5.40;;;19.60;99.90;;;19.00;100.00;100827.91;4169041;28;20034;-75
2023/07/08 01:57:36;;;;;;;7.15;5.00;;;19.50;99.90;;;18.99;100.00;100830.81;4186180;28;20025;-75
2023/07/08 01:59:37;;;;;;;7.82;5.35;;;19.40;99.90;;;18.92;100.00;100821.97;4186435;28;20028;-75
2023/07/08 02:01:38;;;;;;;8.52;5.70;;;19.30;99.90;;;18.90;100.00;100813.34;4186283;28;20021;-75
2023/07/08 02:03:39;;;;;;;10.13;5.07;;;19.30;99.90;;;18.85;100.00;100805.94;4186384;28;20028;-75
2023/07/08 02:05:40;;;;;;;8.23;5.25;;;19.30;99.90;;;18.75;100.00;100786.84;4185895;28;20029;-75
2023/07/08 02:07:40;;;;;;;6.65;4.35;;;19.20;99.90;;;18.76;100.00;100785.78;4168792;28;20025;-75
2023/07/08 02:09:41;;;;;;;7.93;5.25;;;19.20;99.90;;;18.66;100.00;100770.22;4185841;28;20035;-75
2023/07/08 02:11:42;;;;;;;7.22;5.22;;;19.10;99.90;;;18.66;100.00;100764.84;4168394;28;20104;-75
2023/07/08 02:13:44;;;;;;;7.53;4.47;;;19.10;99.90;;;18.60;100.00;100752.34;4185961;28;20029;-75
2023/07/08 02:15:45;;;;;;;6.00;4.63;;;19.10;99.90;;;18.54;100.00;100753.16;4185817;28;20115;-75
2023/07/08 02:17:45;;;;;;;5.88;4.47;;;19.00;99.90;;;18.46;100.00;100753.31;4185973;28;20104;-75
2023/07/08 02:19:46;;;;;;;8.07;5.97;;;18.90;99.90;;;18.41;100.00;100769.16;4185792;28;20074;-75
2023/07/08 02:21:47;;;;;;;7.63;4.72;;;18.90;99.90;;;18.33;100.00;100785.41;4167956;28;20029;-75
2023/07/08 02:23:50;;;;;;;6.35;4.93;;;18.80;99.90;;;18.29;100.00;100786.81;4184269;28;20029;-75
2023/07/08 02:25:55;;;;;;;7.15;5.65;;;18.70;99.90;;;18.27;100.00;100788.88;4184763;28;20480;-75
2023/07/08 02:27:57;;;;;;;8.93;5.65;;;18.70;99.90;;;18.19;100.00;100803.25;4185710;28;20400;-75
2023/07/08 02:29:57;;;;;;;8.38;6.28;;;18.70;99.90;;;18.20;100.00;100802.22;4184616;28;20392;-75
2023/07/08 02:31:58;;;;;;;11.15;6.75;;;18.70;99.90;;;18.19;100.00;100799.75;4185867;28;20033;-75
2023/07/08 02:34:01;;;;;;;8.23;5.43;;;18.70;99.90;;;18.21;100.00;100827.09;4151764;28;20030;-75
2023/07/08 02:36:02;;;;;;;9.07;5.60;;;18.70;99.90;;;18.24;100.00;100842.69;4185576;28;20481;-76
2023/07/08 02:38:04;;;;;;;10.27;6.95;;;18.70;99.90;;;18.31;100.00;100838.16;4185283;28;20635;-75
2023/07/08 02:40:06;;;;;;;10.32;5.93;;;18.80;99.90;;;18.39;100.00;100848.69;4167900;28;20033;-75
2023/07/08 02:42:07;;;;;;;6.93;5.25;;;18.80;99.90;;;18.42;100.00;100844.78;4167943;28;20021;-76
2023/07/08 02:44:07;;;;;;;10.30;6.55;;;18.90;99.90;;;18.51;100.00;100848.91;4185495;28;20017;-75
2023/07/08 02:46:08;;;;;;;8.50;6.05;;;18.90;99.90;;;18.53;100.00;100858.38;4185329;28;20040;-75
2023/07/08 02:48:09;;;;;;;8.23;6.30;;;18.90;99.90;;;18.56;100.00;100865.16;4168176;28;20029;-75
2023/07/08 02:50:11;;;;;;;7.13;5.95;;;19.00;99.90;;;18.55;100.00;100866.16;4151620;28;20045;-75
2023/07/08 02:52:12;;;;;;;6.72;5.43;;;19.00;99.90;;;18.54;100.00;100868.03;4151353;28;20490;-75
2023/07/08 02:54:13;;;;;;;9.10;5.85;;;19.00;99.90;;;18.55;100.00;100872.34;4167491;28;20038;-75
2023/07/08 02:56:14;;;;;;;8.57;6.43;;;19.00;99.90;;;18.55;100.00;100872.34;4185207;28;20029;-76
2023/07/08 02:58:15;;;;;;;8.43;5.95;;;19.00;99.90;;;18.52;100.00;100859.38;4185393;28;20037;-75
2023/07/08 03:00:16;;;;;;;7.55;6.10;;;19.00;99.90;;;18.56;100.00;100859.81;4167663;28;20021;-75
2023/07/08 03:02:17;;;;;;;7.57;6.03;;;19.00;99.90;;;18.62;100.00;100864.31;4167850;28;20022;-75
2023/07/08 03:04:18;;;;;;;7.47;5.95;;;19.00;99.90;;;18.62;100.00;100865.16;4184615;28;20017;-75
2023/07/08 03:06:19;;;;;;;6.68;5.38;;;19.00;99.90;;;18.60;100.00;100859.22;4185157;28;20032;-75
2023/07/08 03:08:20;;;;;;;8.90;6.20;;;19.00;99.90;;;18.59;100.00;100868.25;4167409;28;20025;-75
2023/07/08 03:10:21;;;;;;;6.57;5.85;;;19.00;99.90;;;18.55;100.00;100872.34;4185233;28;20040;-75
2023/07/08 03:12:21;;;;;;;8.55;6.22;;;19.00;99.90;;;18.51;100.00;100892.50;4185107;28;20545;-75
2023/07/08 03:14:22;;;;;;;11.32;7.45;;;19.00;99.90;;;18.44;100.00;100875.59;4184827;28;20028;-75
2023/07/08 03:16:23;;;;;;;8.82;7.30;;;18.90;99.90;;;18.46;100.00;100878.88;4183730;28;20028;-75
2023/07/08 03:18:26;;;;;;;7.45;6.13;;;18.90;99.90;;;18.49;100.00;100888.34;4163550;28;20509;-75
2023/07/08 03:20:27;;;;;;;9.93;6.40;;;18.90;99.90;;;18.50;100.00;100885.50;4184906;28;20043;-75
2023/07/08 03:22:28;;;;;;;9.00;6.82;;;18.90;99.90;;;18.50;100.00;100885.50;4167436;28;20047;-75
2023/07/08 03:24:30;;;;;;;11.20;6.85;;;19.00;99.90;;;18.61;100.00;100881.38;4167365;28;20475;-75
2023/07/08 03:26:31;;;;;;;9.63;7.00;;;19.00;99.90;;;18.62;100.00;100867.00;4185035;28;20078;-75
2023/07/08 03:28:31;;;;;;;10.05;7.28;;;19.00;99.90;;;18.62;100.00;100867.00;4167361;28;20030;-75
2023/07/08 03:30:33;;;;;;;7.68;6.35;;;19.00;99.90;;;18.52;100.00;100859.38;4167532;28;20025;-75
2023/07/08 03:32:34;;;;;;;7.22;5.85;;;19.10;99.90;;;18.62;100.00;100886.53;4150978;28;20100;-75
2023/07/08 03:34:35;;;;;;;10.50;6.57;;;19.00;99.90;;;18.63;100.00;100896.19;4186378;28;20028;-75
2023/07/08 03:36:44;;;;;;;6.65;5.75;;;19.10;99.90;;;18.65;100.00;100893.31;4188214;28;20060;-75
2023/07/08 03:38:44;;;;;;;8.75;5.70;;;19.10;99.90;;;18.67;100.00;100902.75;4171211;28;20029;-75
2023/07/08 03:40:45;;;;;;;7.00;5.25;;;19.10;99.90;;;18.64;100.00;100895.16;4170678;28;20100;-75
2023/07/08 03:42:46;;;;;;;7.63;5.20;;;19.10;99.90;;;18.66;100.00;100895.78;4170675;28;20543;-75
2023/07/08 03:44:47;;;;;;;6.38;5.50;;;19.10;99.90;;;18.70;100.00;100904.19;4170400;28;20444;-76
2023/07/08 03:46:49;;;;;;;8.13;5.30;;;19.10;99.90;;;18.73;100.00;100901.13;4187202;28;20025;-75
2023/07/08 03:48:50;;;;;;;7.00;4.95;;;19.20;99.90;;;18.71;100.00;100898.66;4170607;28;20051;-75
2023/07/08 03:50:51;;;;;;;6.50;4.55;;;19.20;99.90;;;18.75;100.00;100904.44;4170564;28;20025;-75
2023/07/08 03:52:54;;;;;;;5.97;4.70;;;19.20;99.90;;;18.75;100.00;100920.47;4187883;28;20025;-75
2023/07/08 03:54:56;;;;;;;8.48;4.88;;;19.20;99.90;;;18.71;100.00;100929.91;4154286;28;20431;-75
2023/07/08 03:56:57;;;;;;;8.32;5.25;;;19.20;99.90;;;18.73;100.00;100933.19;4187942;28;20048;-75
2023/07/08 03:58:58;;;;;;;8.20;5.30;;;19.20;99.90;;;18.72;100.00;100934.22;4170416;28;20401;-75
2023/07/08 04:00:59;;;;;;;6.85;4.50;;;19.10;99.90;;;18.71;100.00;100941.44;4187814;28;20024;-75
2023/07/08 04:03:00;;;;;;;5.80;4.78;;;19.20;99.90;;;18.70;100.00;100939.75;4186723;28;20045;-76
2023/07/08 04:05:01;;;;;;;5.50;4.47;;;19.10;99.90;;;18.62;100.00;100936.47;4170167;28;20068;-75
2023/07/08 04:07:02;;;;;;;7.32;5.50;;;19.10;99.90;;;18.64;100.00;100943.25;4188051;28;20025;-75
2023/07/08 04:09:03;;;;;;;8.52;5.20;;;19.10;99.90;;;18.65;100.00;100952.09;4187580;28;20075;-75
2023/07/08 04:11:04;;;;;;;5.50;4.90;;;19.10;99.90;;;18.66;100.00;100969.78;4170402;28;20045;-75
2023/07/08 04:13:05;;;;;;;10.35;5.80;;;19.10;99.90;;;18.65;100.00;100971.63;4187902;28;20104;-75
2023/07/08 04:15:10;;;;;;;6.78;5.88;;;19.10;99.90;;;18.66;100.00;100981.31;4186711;28;20385;-76
2023/07/08 04:17:12;;;;;;;7.50;6.10;;;19.10;99.90;;;18.63;100.00;100978.22;4187666;28;20485;-76
2023/07/08 04:19:15;;;;;;;8.85;6.05;;;19.10;99.90;;;18.65;100.00;100985.00;4170148;28;20022;-75
2023/07/08 04:21:17;;;;;;;7.95;6.43;;;19.10;99.90;;;18.61;100.00;100985.59;4169907;28;20445;-75
2023/07/08 04:23:19;;;;;;;7.88;6.05;;;19.10;99.90;;;18.64;100.00;100987.84;4169700;28;20424;-75
2023/07/08 04:25:21;;;;;;;7.60;6.05;;;19.10;99.90;;;18.71;100.00;101000.22;4202993;28;20025;-75
2023/07/08 04:27:22;;;;;;;10.15;6.32;;;19.10;99.90;;;18.68;100.00;100989.94;4187733;28;20135;-76
2023/07/08 04:29:23;;;;;;;8.90;5.85;;;19.20;99.90;;;18.73;100.00;101002.66;4169987;28;20033;-75
2023/07/08 04:31:24;;;;;;;7.40;5.38;;;19.20;99.90;;;18.59;100.00;100980.47;4187443;28;20056;-75
2023/07/08 04:33:25;;;;;;;8.60;5.57;;;19.20;99.90;;;18.71;100.00;100986.84;4186353;28;20028;-75
2023/07/08 04:35:26;;;;;;;7.72;5.47;;;19.20;99.90;;;18.67;100.00;100971.41;4187545;28;20036;-75
2023/07/08 04:37:27;;;;;;;5.35;4.53;;;19.20;99.90;;;18.72;100.00;100985.84;4169807;28;20030;-75
2023/07/08 04:39:28;;;;;;;6.57;4.97;;;19.20;99.90;;;18.76;100.00;100999.59;4169578;28;20489;-75
2023/07/08 04:41:29;;;;;;;8.70;5.88;;;19.20;99.90;;;18.76;100.00;100999.59;4187411;28;20048;-75
2023/07/08 04:43:29;;;;;;;7.30;5.50;;;19.20;99.90;;;18.69;100.00;100980.06;4169768;28;20030;-75
2023/07/08 04:45:30;;;;;;;7.25;5.22;;;19.20;99.90;;;18.79;100.00;100996.50;4186622;28;20025;-75
2023/07/08 04:47:33;;;;;;;8.05;6.40;;;19.20;99.90;;;18.84;100.00;100999.44;4169306;28;20085;-75
2023/07/08 04:49:35;;;;;;;6.90;6.20;;;19.30;99.90;;;18.85;100.00;101001.06;4187217;28;20059;-75
2023/07/08 04:51:40;;;;;;;8.00;4.40;;;19.20;99.90;;;18.81;100.00;100982.97;4187409;28;20396;-75
2023/07/08 04:53:41;;;;;;;6.63;4.82;;;19.30;99.90;;;18.87;100.00;101000.88;4169796;28;20033;-75
2023/07/08 04:55:48;;;;;;;5.95;4.63;;;19.30;99.90;;;18.89;100.00;101012.16;4169461;28;20040;-76
2023/07/08 04:57:49;;;;;;;7.13;5.43;;;19.30;99.90;;;18.88;100.00;101006.00;4187068;28;20103;-75
2023/07/08 04:59:49;;;;;;;6.25;4.18;;;19.30;99.90;;;18.92;100.00;101007.25;4187250;28;20025;-75
2023/07/08 05:01:52;;;;;;;7.10;5.15;;;19.30;99.90;;;18.92;100.00;101001.91;4187325;28;20029;-75
2023/07/08 05:03:53;;;;;;;9.38;5.18;;;19.40;99.90;;;18.97;100.00;101011.97;4169536;28;20026;-75
2023/07/08 05:05:54;;;;;;;6.57;4.97;;;19.40;99.90;;;18.95;100.00;100984.63;4202460;28;20031;-75
2023/07/08 05:07:55;;;;;;;6.03;4.97;;;19.40;99.90;;;18.94;100.00;100966.91;4186919;28;20028;-75
2023/07/08 05:09:56;;;;;;;6.63;4.28;;;19.40;99.90;;;18.98;100.00;100957.47;4186867;28;20110;-75
2023/07/08 05:11:57;;;;;;;6.75;4.45;;;19.40;99.90;;;18.92;100.00;100943.09;4187002;28;20439;-75
2023/07/08 05:13:58;;;;;;;7.47;5.40;;;19.40;99.90;;;18.91;100.00;100961.97;4186991;28;20029;-76
2023/07/08 05:15:59;;;;;;;7.57;5.32;;;19.40;99.90;;;18.92;100.00;100969.81;4186944;28;20025;-75
2023/07/08 05:18:00;;;;;;;6.25;4.10;;;19.40;99.90;;;18.95;100.00;100981.94;4169140;28;20420;-75
2023/07/08 05:20:03;;;;;;;4.85;4.28;;;19.40;99.90;;;18.91;100.00;100956.63;4168929;28;20607;-76
2023/07/08 05:22:04;;;;;;;10.27;4.88;;;19.40;99.90;;;18.93;100.00;100943.91;4170593;28;20064;-76
2023/07/08 05:24:06;;;;;;;6.90;4.88;;;19.40;99.90;;;18.86;100.00;100927.03;4169096;28;20105;-76
2023/07/08 05:26:07;;;;;;;5.75;4.80;;;19.30;99.90;;;18.86;100.00;100927.88;4170456;28;20108;-76
2023/07/08 05:28:09;;;;;;;7.85;5.28;;;19.30;99.90;;;18.72;100.00;100919.03;4169207;28;20030;-76
2023/07/08 05:30:16;;;;;;;9.75;5.70;;;19.30;99.90;;;18.66;100.00;100911.81;4169102;28;20056;-76
2023/07/08 05:32:18;;;;;;;7.30;5.40;;;19.20;99.90;;;18.70;100.00;100934.41;4169109;28;20053;-76
2023/07/08 05:34:19;;;;;;;6.38;4.85;;;19.20;99.90;;;18.67;100.00;100934.84;4168947;28;20072;-76
2023/07/08 05:36:20;;;;;;;6.55;4.95;;;19.20;99.90;;;18.61;100.00;100908.09;4168833;28;20029;-76
2023/07/08 05:38:21;;;;;;;7.55;5.10;;;19.20;99.90;;;18.67;100.00;100902.75;4169751;28;20021;-76
2023/07/08 05:40:22;;;;;;;11.95;5.60;;;19.20;99.90;;;18.67;100.00;100896.59;4170106;28;20484;-76
2023/07/08 05:42:24;;;;;;;6.53;5.28;;;19.10;99.90;;;18.59;100.00;100889.63;4168662;28;20022;-76
2023/07/08 05:44:24;;;;;;;6.57;4.90;;;19.10;99.90;;;18.62;100.00;100915.94;4168810;28;20030;-76
2023/07/08 05:46:25;;;;;;;7.45;4.95;;;19.10;99.90;;;18.60;100.00;100923.34;4169805;28;20519;-76
2023/07/08 05:48:26;;;;;;;7.40;4.60;;;19.00;99.90;;;18.59;100.00;100915.50;4169978;28;20052;-76
2023/07/08 05:50:27;;;;;;;6.40;5.60;;;19.00;99.90;;;18.52;100.00;100918.16;4170012;28;20033;-76
2023/07/08 05:52:28;;;;;;;7.80;5.60;;;19.00;99.90;;;18.51;100.00;100913.88;4169749;28;20029;-76
2023/07/08 05:54:29;;;;;;;5.95;5.20;;;19.00;99.90;;;18.50;100.00;100920.22;4168186;28;20036;-75
2023/07/08 05:56:30;;;;;;;5.50;4.80;;;19.00;99.90;;;18.50;100.00;100949.59;4168969;28;20079;-76
2023/07/08 05:58:31;;;;;;;6.13;5.25;;;18.90;99.90;;;18.47;100.00;100944.63;4169297;28;20033;-76
2023/07/08 06:00:32;;;;;;;6.22;5.20;;;18.90;99.90;;;18.61;100.00;100946.34;4169666;28;20029;-76
2023/07/08 06:02:33;;;;;;;6.07;5.35;;;19.00;99.90;;;18.68;100.00;100936.50;4169551;28;20037;-76
2023/07/08 06:04:34;;;;;;;7.00;5.60;;;19.10;99.90;;;18.82;100.00;100941.84;4168380;28;20013;-76
2023/07/08 06:06:34;;;;;;;7.60;5.50;;;19.20;99.90;;;18.97;100.00;100939.78;4151921;28;20042;-76
2023/07/08 06:08:35;;;;;;;5.78;4.93;;;19.30;99.90;;;19.09;100.00;100935.44;4168249;28;20463;-76
2023/07/08 06:10:43;;;;;;;5.90;5.05;;;19.40;99.90;;;19.29;100.00;100934.41;4168317;28;20036;-76
2023/07/08 06:12:45;;;;;;;6.80;4.82;;;19.60;99.90;;;19.36;100.00;100934.41;4169602;28;20453;-76
2023/07/08 06:14:45;;;;;;;8.30;6.20;;;19.70;99.90;;;19.45;100.00;100929.69;4169498;28;20029;-76
2023/07/08 06:16:46;;;;;;;10.10;5.93;;;19.80;99.90;;;19.54;100.00;100937.28;4168298;28;20595;-76
2023/07/08 06:18:47;;;;;;;6.82;5.38;;;19.90;99.90;;;19.64;100.00;100936.84;4169557;28;20033;-75
2023/07/08 06:20:56;;;;;;;5.82;5.22;;;20.00;99.90;;;19.75;100.00;100950.41;4180291;28;20075;-75
2023/07/08 06:22:57;;;;;;;5.70;4.97;;;20.10;99.90;;;19.80;100.00;100947.91;4167920;28;20025;-76
2023/07/08 06:24:58;;;;;;;7.65;5.28;;;20.20;99.90;;;19.86;100.00;100957.75;4185775;28;20435;-75
2023/07/08 06:26:59;;;;;;;4.90;4.40;;;20.20;99.90;;;19.91;100.00;100964.34;4185608;28;20036;-75
2023/07/08 06:29:00;;;;;;;7.45;4.82;;;20.30;99.90;;;19.88;100.00;100963.75;4186097;28;20424;-76
2023/07/08 06:31:01;;;;;;;5.35;4.45;;;20.30;99.90;;;19.86;100.00;100968.47;4185732;28;20040;-76
2023/07/08 06:33:02;;;;;;;5.72;4.57;;;20.30;99.90;;;19.86;100.00;100973.81;4185613;28;20029;-76
2023/07/08 06:35:03;;;;;;;5.47;4.65;;;20.30;99.90;;;19.80;100.00;100968.53;4185567;28;20025;-76
2023/07/08 06:37:04;;;;;;;5.72;4.72;;;20.30;99.90;;;19.66;100.00;100957.00;4167984;28;20032;-75
2023/07/08 06:39:07;;;;;;;6.82;4.93;;;20.20;99.90;;;19.76;100.00;100978.81;4185382;28;20124;-76
2023/07/08 06:41:08;;;;;;;7.53;4.97;;;20.20;99.90;;;19.81;100.00;100992.38;4185674;28;20029;-75
2023/07/08 06:43:09;;;;;;;6.65;5.47;;;20.20;99.90;;;19.86;100.00;101011.31;4185397;28;20538;-75
2023/07/08 06:45:10;;;;;;;6.63;5.60;;;20.30;99.90;;;19.86;100.00;101016.66;4185601;28;20025;-75
2023/07/08 06:47:11;;;;;;;7.15;5.75;;;20.30;99.90;;;19.79;100.00;101021.22;4168148;28;20037;-76
2023/07/08 06:49:12;;;;;;;8.25;6.10;;;20.30;99.90;;;19.74;100.00;101015.66;4167638;28;20025;-76
2023/07/08 06:51:13;;;;;;;7.70;4.80;;;20.30;99.90;;;19.64;100.00;100985.84;4185373;28;20036;-76
2023/07/08 06:53:15;;;;;;;7.13;5.28;;;20.20;99.90;;;19.57;100.00;100990.38;4167656;28;20033;-76
2023/07/08 06:55:16;;;;;;;9.38;6.28;;;20.10;99.90;;;19.59;100.00;101003.56;4167814;28;20030;-76
2023/07/08 06:57:17;;;;;;;6.18;4.85;;;20.00;99.90;;;19.46;100.00;100999.06;4185418;28;20037;-75
2023/07/08 06:59:18;;;;;;;8.88;6.03;;;20.00;99.90;;;19.49;100.00;101003.16;4167633;28;20029;-76
2023/07/08 07:01:19;;;;;;;8.60;5.55;;;20.00;99.90;;;19.53;100.00;101001.72;4185594;28;20037;-76
2023/07/08 07:03:19;;;;;;;6.65;4.75;;;20.00;99.90;;;19.55;100.00;100986.28;4185260;28;20070;-76
2023/07/08 07:05:21;;;;;;;6.57;5.25;;;20.00;99.90;;;19.62;100.00;100995.13;4200700;28;20103;-76
2023/07/08 07:07:22;;;;;;;6.47;4.78;;;20.00;99.90;;;19.63;100.00;100992.22;4185479;28;20115;-76
2023/07/08 07:09:22;;;;;;;7.70;4.82;;;20.10;99.90;;;19.63;100.00;100997.56;4183152;28;20037;-76
2023/07/08 07:11:23;;;;;;;4.85;4.20;;;20.20;99.90;;;19.62;100.00;101001.28;4167610;28;20025;-76
2023/07/08 07:13:24;;;;;;;10.15;6.00;;;20.20;99.90;;;19.58;100.00;100975.16;4167677;28;20037;-75
2023/07/08 07:15:25;;;;;;;7.53;4.38;;;20.30;99.90;;;19.95;100.00;101000.41;4167432;28;20025;-76
2023/07/08 07:17:26;;;;;;;6.75;4.63;;;20.40;99.90;;;20.19;100.00;101003.16;4167658;28;20033;-76
2023/07/08 07:19:27;;;;;;;7.38;4.70;;;20.50;99.90;;;20.48;100.00;101004.53;4185347;28;20029;-75
2023/07/08 07:21:28;;;;;;;5.38;4.10;;;20.70;99.90;;;20.78;100.00;101007.44;4167476;28;20464;-75
2023/07/08 07:23:29;;;;;;;5.65;4.70;;;21.00;99.90;;;21.14;100.00;101026.41;4150746;28;20037;-75
2023/07/08 07:25:30;;;;;;;7.85;5.00;;;21.20;99.90;;;21.43;100.00;101024.94;4167593;28;20534;-75
2023/07/08 07:27:31;;;;;;;8.18;4.65;;;21.50;99.90;;;21.51;100.00;101030.84;4184919;28;20121;-75
2023/07/08 07:29:49;;;;;;;7.93;4.80;;;21.70;99.90;;;21.63;100.00;101036.28;4167574;28;20025;-75
2023/07/08 07:31:51;;;;;;;6.93;4.55;;;21.80;99.90;;;21.80;100.00;101040.03;4184961;28;20083;-75
2023/07/08 07:33:52;;;;;;;6.60;4.85;;;22.00;99.90;;;21.93;100.00;101036.44;4185252;28;20017;-75
2023/07/08 07:35:53;;;;;;;9.75;5.45;;;22.20;99.90;;;22.08;100.00;101054.88;4183858;28;20032;-75
2023/07/08 07:37:54;;;;;;;6.88;4.85;;;22.40;99.90;;;22.07;100.00;101047.88;4184452;28;20434;-76
2023/07/08 07:39:55;;;;;;;6.50;4.53;;;22.50;99.90;;;22.07;100.00;101042.50;4184915;28;20032;-75
2023/07/08 07:41:56;;;;;;;6.57;3.80;;;22.60;99.90;;;22.13;100.00;101042.44;4167403;28;20022;-75
2023/07/08 07:43:57;;;;;;;4.90;4.00;;;22.70;99.90;;;22.16;100.00;101028.53;4184975;28;20032;-76
2023/07/08 07:45:58;;;;;;;5.50;4.38;;;22.70;99.90;;;22.31;100.00;101034.34;4184911;28;20050;-76
2023/07/08 07:47:58;;;;;;;6.45;4.05;;;22.80;99.90;;;22.47;100.00;101049.03;4184812;28;20484;-76
2023/07/08 07:50:00;;;;;;;4.80;3.78;;;22.90;99.90;;;22.63;100.00;101036.84;4184886;28;20025;-75
2023/07/08 07:52:01;;;;;;;5.20;3.60;;;23.00;99.90;;;22.96;100.00;101037.22;4167404;28;20057;-76
2023/07/08 07:54:02;;;;;;;4.32;3.90;;;23.20;99.90;;;23.10;100.00;101031.41;4167220;28;20029;-76
2023/07/08 07:56:04;;;;;;;5.45;4.15;;;23.30;99.90;;;23.22;100.00;101042.19;4166632;28;20029;-76
2023/07/08 07:58:05;;;;;;;7.60;4.07;;;23.40;99.90;;;23.37;100.00;101039.88;4167379;28;20029;-76
2023/07/08 08:00:08;;;;;;;5.97;3.70;;;23.60;99.90;;;23.40;100.00;101052.91;4167133;28;20107;-75
2023/07/08 08:02:11;;;;;;;8.00;4.20;;;23.60;99.90;;;23.35;100.00;101054.63;4167250;28;20052;-76
2023/07/08 08:04:12;;;;;;;6.03;3.20;;;23.70;99.90;;;23.36;100.00;101064.31;4184711;28;20060;-76
2023/07/08 08:06:13;;;;;;;5.97;3.75;;;23.70;99.90;;;23.51;100.00;101057.47;4184878;28;20025;-76
2023/07/08 08:08:14;;;;;;;5.88;3.60;;;23.80;99.90;;;23.80;100.00;101063.00;4166932;28;20420;-76
2023/07/08 08:10:15;;;;;;;6.50;3.50;;;24.00;99.90;;;23.91;100.00;101056.75;4167320;28;20031;-76
2023/07/08 08:12:16;;;;;;;5.05;3.10;;;24.20;99.90;;;24.05;100.00;101044.66;4184663;28;20493;-76
2023/07/08 08:14:18;;;;;;;7.50;3.53;;;24.30;99.90;;;24.22;100.00;101048.31;4184797;28;20033;-76
2023/07/08 08:16:22;;;;;;;7.57;4.03;;;24.40;99.90;;;24.34;100.00;101045.59;4166930;28;20097;-76
2023/07/08 08:18:23;;;;;;;;;;;24.50;99.90;;;24.48;100.00;101042.38;4167593;28;20033;-76
2023/07/08 08:20:25;;;;;;;4.57;2.97;;;24.70;99.90;;;24.67;100.00;101034.91;4167742;28;19917;-76
2023/07/08 08:22:26;;;;;;;3.97;2.83;;;25.00;99.90;;;24.98;100.00;101061.41;4187712;28;20029;-76